map of GOI home
GOI - Airport
Location
City:  Goa, Goa, India
Name:Dabolim Airport
Old (Alt.):Goa International Airport
ICAO:VOGO
IATA:GOI

Details
Type:Airport (Aerodrome, Airfield)
Use:Public/Civil, Military, International (customs port of entry)
Latitude:1522'51"N (15.380833)
Longitude:7349'53"E (73.831422)
Datum:WGS 1984
Elevation:184 ft (56 m)
Variation:0.79W (WMM2015 magnetic declination)
0.07 annual change
Runways:1
Longest:11345 × 148 ft (3458 × 45 m), paved

Time
Time Zone:UTC+5:30
Local Time:

Weather
METAR:VOGO 201830Z VRB02KT 3000 BR FEW020 SCT090 27/23 Q1010 NOSIG

Related Locations
Nearby:
Farthest:IPC: 11594 mi / 18658 km
Easter Island (Isla de Pascua, Rapa Nui) [Mataveri Intl], VS, CL

Find:

   beyond  
but within

Other Information
Maps:
NOTAMs:
Links:
Sources:

  
flag of India   

Sectional Chart

Flight Planning
at skyvector.com

Satellite Image

Google Maps Satellite view

 

Copyright © 2004-2017 Karl L. Swartz. All rights reserved.
The Great Circle Mapper name and logo are trademarks of the Great Circle Mapper.
All other trademarks mentioned herein belong to their respective owners.
Please see credits for attibutions and further copyright information.

  Follow gcmap on Facebook Follow gcmap on Twitter Follow gcmap on Google+ GCmap on LinkedIn

hCard Microformat

Geo Microformat